Time;durP1;ratioP1;P1;durP2;ratioP2;P2;SDS_P1;SDS_P2;PMS_P1;PMS_P2;Temp;Humidity;BMP_temperature;BMP_pressure;BME280_temperature;BME280_humidity;BME280_pressure;Samples;Min_cycle;Max_cycle;Signal;HPM_P1;HPM_P2
2022/01/08 00:00:25;;;;;;;;;;;;;;;3.25;78.79;93427.72;5114017;27;19920;-44
2022/01/08 00:02:51;;;;;;;;;;;;;;;3.31;79.23;93433.19;5111610;28;19907;-45
2022/01/08 00:05:17;;;;;;;;;;;;;;;3.17;79.37;93426.03;5111751;28;19965;-42
2022/01/08 00:07:42;;;;;;;;;;;;;;;3.26;79.13;93436.66;5111398;28;19911;-43
2022/01/08 00:10:07;;;;;;;;;;;;;;;3.16;79.59;93427.28;5111441;28;20006;-42
2022/01/08 00:12:33;;;;;;;;;;;;;;;3.27;79.99;93424.50;5111560;28;20392;-45
2022/01/08 00:14:58;;;;;;;;;;;;;;;3.22;79.54;93425.28;5111394;28;19908;-43
2022/01/08 00:17:23;;;;;;;;;;;;;;;3.18;79.60;93422.06;5111475;28;19964;-44
2022/01/08 00:19:49;;;;;;;;;;;;;;;3.31;79.34;93427.72;5111661;28;19907;-44
2022/01/08 00:22:15;;;;;;;;;;;;;;;3.41;79.39;93428.91;5111660;28;19908;-43
2022/01/08 00:24:40;;;;;;;;;;;;;;;3.41;79.37;93424.19;5111274;28;20336;-44
2022/01/08 00:27:05;;;;;;;;;;;;;;;3.37;78.75;93433.88;5111333;28;19908;-46
2022/01/08 00:29:31;;;;;;;;;;;;;;;3.30;79.49;93431.69;5111165;28;19986;-47
2022/01/08 00:31:56;;;;;;;;;;;;;;;3.24;79.88;93430.97;5110080;28;19908;-45
2022/01/08 00:34:21;;;;;;;;;;;;;;;3.24;79.84;93422.78;5111384;28;19915;-45
2022/01/08 00:36:47;;;;;;;;;;;;;;;3.33;79.35;93427.97;5111526;28;20393;-44
2022/01/08 00:39:12;;;;;;;;;;;;;;;3.34;79.21;93424.72;5111417;28;20372;-47
2022/01/08 00:41:37;;;;;;;;;;;;;;;3.34;79.11;93423.97;5111082;28;19916;-45
2022/01/08 00:44:03;;;;;;;;;;;;;;;3.23;79.96;93419.31;5111314;28;19938;-46
2022/01/08 00:46:28;;;;;;;;;;;;;;;3.29;79.75;93422.03;5111205;28;19912;-44
2022/01/08 00:48:53;;;;;;;;;;;;;;;3.39;79.19;93415.03;5109708;28;19907;-45
2022/01/08 00:51:19;;;;;;;;;;;;;;;3.49;78.47;93419.69;5109406;28;19912;-45
2022/01/08 00:53:44;;;;;;;;;;;;;;;3.45;78.81;93419.22;5109080;28;20320;-46
2022/01/08 00:56:09;;;;;;;;;;;;;;;3.51;77.80;93419.19;5109067;28;19907;-45
2022/01/08 00:58:35;;;;;;;;;;;;;;;3.50;77.84;93409.53;5109200;28;19954;-44
2022/01/08 01:01:00;;;;;;;;;;;;;;;3.50;78.08;93402.06;5108159;28;19923;-45
2022/01/08 01:03:25;;;;;;;;;;;;;;;3.57;78.46;93398.06;5109663;28;20293;-48
2022/01/08 01:05:51;;;;;;;;;;;;;;;3.60;78.18;93391.59;5110948;28;19987;-48
2022/01/08 01:08:16;;;;;;;;;;;;;;;3.54;78.27;93393.59;5111057;28;19907;-44
2022/01/08 01:10:41;;;;;;;;;;;;;;;3.53;78.63;93386.69;5110783;28;19911;-49
2022/01/08 01:13:07;;;;;;;;;;;;;;;3.50;79.17;93393.16;5110972;28;19911;-46
2022/01/08 01:15:33;;;;;;;;;;;;;;;3.53;78.49;93375.75;5111100;28;19930;-44
2022/01/08 01:17:58;;;;;;;;;;;;;;;3.62;78.25;93373.47;5110788;28;19914;-45
2022/01/08 01:20:23;;;;;;;;;;;;;;;3.73;77.73;93378.09;5110490;28;20000;-46
2022/01/08 01:23:05;;;;;;;;;;;;;;;3.67;77.30;93369.22;5113045;28;19938;-44
2022/01/08 01:25:46;;;;;;;;;;;;;;;3.49;78.32;93369.81;5114691;28;19943;-48
2022/01/08 01:28:41;;;;;;;;;;;;;;;3.56;78.74;93363.81;5114650;28;19907;-44
2022/01/08 01:41:10;;;;;;;;;;;;;;;3.65;78.66;93361.53;5114198;28;19912;-43
2022/01/08 01:41:54;;;;;;;;;;;;;;;3.54;78.82;93347.97;5114483;28;19915;-44
2022/01/08 01:47:04;;;;;;;;;;;;;;;3.69;77.99;93328.50;5114363;28;20010;-44
2022/01/08 01:49:29;;;;;;;;;;;;;;;3.79;77.27;93329.66;5114204;28;19923;-41
2022/01/08 01:51:55;;;;;;;;;;;;;;;3.60;77.84;93331.53;5114266;28;19908;-46
2022/01/08 01:54:21;;;;;;;;;;;;;;;3.63;77.96;93333.25;5113439;27;19915;-42
2022/01/08 01:56:46;;;;;;;;;;;;;;;3.62;78.54;93329.78;5114416;28;19964;-45
2022/01/08 01:59:12;;;;;;;;;;;;;;;3.73;78.25;93339.88;5114109;28;19907;-46
2022/01/08 02:01:37;;;;;;;;;;;;;;;3.65;78.47;93344.41;5114139;28;20399;-44
2022/01/08 02:04:03;;;;;;;;;;;;;;;3.69;77.76;93334.72;5113950;28;19915;-46
2022/01/08 02:06:28;;;;;;;;;;;;;;;3.66;78.15;93338.44;5113600;28;19911;-43
2022/01/08 02:08:53;;;;;;;;;;;;;;;3.75;77.83;93338.13;5113323;28;19908;-47
2022/01/08 02:11:20;;;;;;;;;;;;;;;3.65;78.52;93338.94;5117347;27;19915;-41
2022/01/08 02:13:46;;;;;;;;;;;;;;;3.75;77.76;93337.38;5123330;27;19907;-45
2022/01/08 02:16:17;;;;;;;;;;;;;;;3.60;77.82;93339.72;5122471;27;19942;-45
2022/01/08 02:18:43;;;;;;;;;;;;;;;3.55;78.96;93343.25;5123521;27;19908;-45
2022/01/08 02:21:08;;;;;;;;;;;;;;;3.54;79.37;93344.47;5124529;27;19911;-46
2022/01/08 02:23:33;;;;;;;;;;;;;;;3.53;79.26;93343.00;5122571;27;20396;-45
2022/01/08 02:26:02;;;;;;;;;;;;;;;3.60;79.20;93342.44;5124141;27;20368;-46
2022/01/08 02:28:28;;;;;;;;;;;;;;;3.66;79.28;93343.19;5113110;28;20316;-47
2022/01/08 02:30:53;;;;;;;;;;;;;;;3.75;79.13;93342.84;5112444;28;19911;-51
2022/01/08 02:33:22;;;;;;;;;;;;;;;3.85;78.33;93333.09;5113492;28;19931;-47
2022/01/08 02:35:48;;;;;;;;;;;;;;;3.85;77.93;93331.09;5113433;28;20683;-47
2022/01/08 02:38:13;;;;;;;;;;;;;;;3.84;78.18;93320.69;5113226;27;19998;-47
2022/01/08 02:40:38;;;;;;;;;;;;;;;3.84;77.99;93326.16;5113271;28;19998;-48
2022/01/08 02:43:04;;;;;;;;;;;;;;;3.84;77.70;93320.69;5113181;28;19919;-46
2022/01/08 02:45:30;;;;;;;;;;;;;;;3.93;77.26;93325.84;5113175;28;19998;-47
2022/01/08 02:47:55;;;;;;;;;;;;;;;3.96;77.30;93315.88;5113128;28;19907;-43
2022/01/08 02:50:21;;;;;;;;;;;;;;;3.94;77.47;93315.66;5113194;28;19912;-44
2022/01/08 02:52:47;;;;;;;;;;;;;;;4.03;77.67;93313.34;5112727;28;19907;-44
2022/01/08 02:55:13;;;;;;;;;;;;;;;3.94;78.02;93308.22;5112953;28;19907;-44
2022/01/08 02:57:38;;;;;;;;;;;;;;;3.88;78.18;93298.59;5113200;28;19966;-46
2022/01/08 03:00:04;;;;;;;;;;;;;;;4.01;78.18;93293.97;5112808;28;20002;-45
2022/01/08 03:02:29;;;;;;;;;;;;;;;4.04;77.01;93287.50;5112753;28;19967;-44
2022/01/08 03:04:55;;;;;;;;;;;;;;;3.95;77.10;93278.88;5112787;28;19907;-45
2022/01/08 03:07:20;;;;;;;;;;;;;;;3.99;77.44;93273.88;5112642;28;19969;-45
2022/01/08 03:09:55;;;;;;;;;;;;;;;3.84;78.55;93272.28;5112908;28;19960;-45
2022/01/08 03:12:20;;;;;;;;;;;;;;;3.96;77.78;93275.66;5112694;28;19907;-44
2022/01/08 03:14:45;;;;;;;;;;;;;;;3.99;77.48;93274.63;5112870;28;20387;-47
2022/01/08 03:17:10;;;;;;;;;;;;;;;3.97;77.83;93274.41;5112564;28;19908;-50
2022/01/08 03:19:37;;;;;;;;;;;;;;;4.02;77.67;93270.13;5112762;28;19915;-44
2022/01/08 03:22:04;;;;;;;;;;;;;;;3.99;77.61;93274.63;5112385;28;20415;-44
2022/01/08 03:24:29;;;;;;;;;;;;;;;3.93;77.39;93273.94;5145220;27;19914;-43
2022/01/08 03:26:55;;;;;;;;;;;;;;;3.93;77.71;93282.13;5112316;28;19915;-44
2022/01/08 03:29:20;;;;;;;;;;;;;;;3.96;77.28;93274.91;5145381;27;19911;-43
2022/01/08 03:31:46;;;;;;;;;;;;;;;3.89;77.86;93278.94;5112244;28;19988;-44
2022/01/08 03:34:11;;;;;;;;;;;;;;;3.78;78.34;93277.06;5112379;28;19949;-47
2022/01/08 03:36:36;;;;;;;;;;;;;;;3.76;79.19;93276.09;5112509;28;20015;-46
2022/01/08 03:39:02;;;;;;;;;;;;;;;3.79;79.04;93280.50;5112036;28;19937;-45
2022/01/08 03:41:27;;;;;;;;;;;;;;;3.70;79.23;93273.38;5112000;28;19911;-47
2022/01/08 03:43:53;;;;;;;;;;;;;;;3.60;79.91;93269.50;5111932;28;19960;-44
2022/01/08 03:46:19;;;;;;;;;;;;;;;3.62;80.19;93272.47;5144911;27;19908;-43
2022/01/08 03:49:10;;;;;;;;;;;;;;;3.58;80.82;93274.72;5112243;28;19995;-44
2022/01/08 03:51:33;;;;;;;;;;;;;;;3.66;80.62;93266.75;5111775;28;20324;-45
2022/01/08 03:53:59;;;;;;;;;;;;;;;3.73;80.52;93277.84;5111314;27;19908;-43
2022/01/08 03:56:24;;;;;;;;;;;;;;;3.78;80.30;93270.84;5112006;28;19913;-46
2022/01/08 03:58:50;;;;;;;;;;;;;;;3.79;80.13;93273.06;5112089;28;20395;-43
2022/01/08 04:01:15;;;;;;;;;;;;;;;3.78;80.01;93263.41;5111513;28;20517;-46
2022/01/08 04:03:40;;;;;;;;;;;;;;;3.81;80.00;93265.09;5111676;28;19907;-44
2022/01/08 04:06:05;;;;;;;;;;;;;;;3.88;78.90;93265.81;5111407;28;19908;-45
2022/01/08 04:08:31;;;;;;;;;;;;;;;3.68;79.79;93251.31;5111432;28;19939;-44
2022/01/08 04:10:56;;;;;;;;;;;;;;;3.55;80.73;93253.16;5111461;28;19915;-43
2022/01/08 04:13:26;;;;;;;;;;;;;;;3.48;81.58;93256.44;5111520;28;19908;-46
2022/01/08 04:15:55;;;;;;;;;;;;;;;3.52;82.23;93254.94;5111419;28;19992;-44
2022/01/08 04:18:20;;;;;;;;;;;;;;;3.52;82.08;93246.75;5111463;28;20032;-43
2022/01/08 04:23:49;;;;;;;;;;;;;;;3.45;82.73;93252.00;5088612;28;19911;-45
2022/01/08 04:26:14;;;;;;;;;;;;;;;3.43;82.52;93251.75;5088538;28;19908;-43
2022/01/08 04:28:40;;;;;;;;;;;;;;;3.43;82.81;93251.75;5098943;28;19972;-46
2022/01/08 04:31:05;;;;;;;;;;;;;;;3.39;83.01;93246.59;5111164;28;19911;-45
2022/01/08 04:33:30;;;;;;;;;;;;;;;3.43;83.22;93244.31;5110602;28;19915;-48
2022/01/08 04:35:56;;;;;;;;;;;;;;;3.55;82.83;93247.72;5110924;28;20284;-45
2022/01/08 04:38:21;;;;;;;;;;;;;;;3.59;81.83;93253.63;5112260;28;19918;-43
2022/01/08 04:40:47;;;;;;;;;;;;;;;3.60;81.80;93244.19;5112856;28;19911;-45
2022/01/08 04:43:12;;;;;;;;;;;;;;;3.61;81.81;93249.16;5112693;28;20337;-44
2022/01/08 04:45:37;;;;;;;;;;;;;;;3.65;82.02;93252.34;5113001;28;19976;-46
2022/01/08 04:48:03;;;;;;;;;;;;;;;3.62;82.00;93247.13;5116660;28;19915;-44
2022/01/08 04:50:28;;;;;;;;;;;;;;;3.78;81.86;93244.28;5118578;28;19920;-45
2022/01/08 04:52:55;;;;;;;;;;;;;;;3.82;81.22;93246.72;5109876;28;19957;-44
2022/01/08 04:55:20;;;;;;;;;;;;;;;3.80;81.54;93252.72;5111015;28;19914;-47
2022/01/08 04:57:46;;;;;;;;;;;;;;;3.77;81.59;93245.53;5113571;28;19907;-46
2022/01/08 05:00:12;;;;;;;;;;;;;;;3.72;81.57;93245.59;5115144;28;20366;-44
2022/01/08 05:02:37;;;;;;;;;;;;;;;3.66;81.79;93250.34;5114967;28;19915;-45
2022/01/08 05:05:03;;;;;;;;;;;;;;;3.64;81.87;93250.84;5115018;28;19915;-44
2022/01/08 05:07:28;;;;;;;;;;;;;;;3.73;81.27;93247.06;5115399;28;19911;-44
2022/01/08 05:09:53;;;;;;;;;;;;;;;3.75;81.66;93245.28;5115228;28;19965;-46
2022/01/08 05:12:19;;;;;;;;;;;;;;;3.70;81.74;93242.63;5115220;28;19908;-48
2022/01/08 05:14:44;;;;;;;;;;;;;;;3.68;81.21;93245.84;5115238;28;20387;-46
2022/01/08 05:17:10;;;;;;;;;;;;;;;3.79;81.45;93240.28;5115210;28;19908;-50
2022/01/08 05:19:44;;;;;;;;;;;;;;;3.68;81.03;93234.22;5115138;28;20389;-48
2022/01/08 05:22:17;;;;;;;;;;;;;;;3.72;81.03;93234.66;5114765;28;19907;-46
2022/01/08 05:24:43;;;;;;;;;;;;;;;3.78;80.26;93230.63;5114705;28;19914;-49
2022/01/08 05:27:12;;;;;;;;;;;;;;;3.81;80.80;93242.53;5114691;28;19908;-49
2022/01/08 05:29:38;;;;;;;;;;;;;;;3.69;81.20;93235.69;5114898;28;19915;-53
2022/01/08 05:32:03;;;;;;;;;;;;;;;3.87;81.19;93229.56;5114552;28;19914;-51
2022/01/08 05:34:28;;;;;;;;;;;;;;;3.88;80.68;93236.50;5114812;28;19935;-49
2022/01/08 05:36:54;;;;;;;;;;;;;;;3.89;80.62;93229.78;5114782;28;19907;-47
2022/01/08 05:39:19;;;;;;;;;;;;;;;3.91;79.82;93232.00;5114502;28;20320;-47
2022/01/08 05:41:44;;;;;;;;;;;;;;;3.90;80.34;93225.78;5114643;28;19915;-47
2022/01/08 05:44:10;;;;;;;;;;;;;;;3.73;81.15;93230.66;5114274;28;19915;-48
2022/01/08 05:46:35;;;;;;;;;;;;;;;3.66;81.66;93225.78;5114351;28;19908;-48
2022/01/08 05:49:02;;;;;;;;;;;;;;;3.75;81.22;93228.16;5114631;28;19908;-46
2022/01/08 05:51:27;;;;;;;;;;;;;;;3.65;81.51;93227.78;5114451;27;19981;-47
2022/01/08 05:53:53;;;;;;;;;;;;;;;3.52;82.30;93224.91;5113483;28;19955;-47
2022/01/08 05:56:18;;;;;;;;;;;;;;;3.46;83.17;93228.91;5114376;28;19908;-49
2022/01/08 05:58:43;;;;;;;;;;;;;;;3.49;82.84;93231.38;5114074;28;20016;-48
2022/01/08 06:01:09;;;;;;;;;;;;;;;3.57;82.62;93228.84;5113809;28;19973;-45
2022/01/08 06:03:34;;;;;;;;;;;;;;;3.61;82.41;93230.03;5114239;28;20372;-47
2022/01/08 06:05:59;;;;;;;;;;;;;;;3.71;82.06;93222.25;5114068;28;20019;-48
2022/01/08 06:08:24;;;;;;;;;;;;;;;3.61;82.13;93226.56;5113102;28;19917;-46
2022/01/08 06:10:50;;;;;;;;;;;;;;;3.70;81.82;93220.78;5113810;28;19912;-49
2022/01/08 06:13:15;;;;;;;;;;;;;;;3.72;82.00;93224.50;5114053;28;19908;-47
2022/01/08 06:15:40;;;;;;;;;;;;;;;3.73;82.14;93227.94;5113767;28;19957;-46
2022/01/08 06:18:06;;;;;;;;;;;;;;;3.67;82.29;93224.53;5113966;28;19907;-45
2022/01/08 06:20:31;;;;;;;;;;;;;;;3.72;82.06;93226.47;5113913;28;19954;-47
2022/01/08 06:22:56;;;;;;;;;;;;;;;3.76;81.93;93221.47;5113653;28;20006;-47
2022/01/08 06:25:22;;;;;;;;;;;;;;;3.71;81.69;93222.25;5113524;28;19908;-47
2022/01/08 06:27:47;;;;;;;;;;;;;;;3.80;81.76;93225.41;5113464;28;19968;-46
2022/01/08 06:30:12;;;;;;;;;;;;;;;3.80;81.73;93224.66;5113368;27;19919;-46
2022/01/08 06:32:38;;;;;;;;;;;;;;;3.89;81.45;93216.13;5113722;28;19915;-47
2022/01/08 06:35:03;;;;;;;;;;;;;;;4.03;80.60;93217.72;5113644;28;19907;-50
2022/01/08 06:37:28;;;;;;;;;;;;;;;4.05;80.75;93217.94;5113368;28;19934;-50
2022/01/08 06:39:54;;;;;;;;;;;;;;;4.16;80.08;93215.09;5113871;28;19942;-49
2022/01/08 06:42:20;;;;;;;;;;;;;;;4.14;79.67;93209.41;5113549;28;19931;-49
2022/01/08 06:44:45;;;;;;;;;;;;;;;4.16;78.99;93206.19;5113134;28;19907;-53
2022/01/08 06:47:10;;;;;;;;;;;;;;;4.14;78.79;93214.88;5113253;28;19994;-49
2022/01/08 06:49:36;;;;;;;;;;;;;;;4.04;78.13;93204.81;5113040;28;19908;-49
2022/01/08 06:52:01;;;;;;;;;;;;;;;4.15;78.83;93210.16;5113293;28;19912;-54
2022/01/08 06:54:27;;;;;;;;;;;;;;;4.16;78.83;93211.66;5112291;28;19934;-53
2022/01/08 06:56:52;;;;;;;;;;;;;;;4.17;78.99;93207.66;5112387;28;19911;-49
2022/01/08 06:59:17;;;;;;;;;;;;;;;4.26;78.89;93210.03;5112723;27;20400;-48
2022/01/08 07:01:43;;;;;;;;;;;;;;;4.27;78.19;93215.00;5111585;28;20574;-48
2022/01/08 07:04:08;;;;;;;;;;;;;;;4.24;78.27;93207.84;5113694;27;20286;-54
2022/01/08 07:06:33;;;;;;;;;;;;;;;4.30;77.85;93226.88;5118190;27;20354;-49
2022/01/08 07:08:59;;;;;;;;;;;;;;;4.20;77.66;93218.28;5121047;27;19937;-49
2022/01/08 07:11:24;;;;;;;;;;;;;;;4.31;77.29;93225.66;5115957;27;19923;-47
2022/01/08 07:13:49;;;;;;;;;;;;;;;4.22;77.54;93220.53;5119724;27;19911;-46
2022/01/08 07:16:15;;;;;;;;;;;;;;;4.28;77.61;93213.00;5120281;27;19934;-47
2022/01/08 07:18:40;;;;;;;;;;;;;;;4.29;78.27;93220.69;5118623;27;19969;-47
2022/01/08 07:21:05;;;;;;;;;;;;;;;4.25;78.90;93214.03;5111149;28;19955;-47
2022/01/08 07:23:31;;;;;;;;;;;;;;;4.26;79.64;93221.72;5112069;28;20002;-48
2022/01/08 07:25:56;;;;;;;;;;;;;;;4.32;79.88;93214.19;5110101;28;19915;-47
2022/01/08 07:28:21;;;;;;;;;;;;;;;4.37;79.32;93212.66;5109330;28;20328;-48
2022/01/08 07:30:47;;;;;;;;;;;;;;;4.42;79.11;93209.84;5109867;28;19927;-47
2022/01/08 07:33:12;;;;;;;;;;;;;;;4.41;78.79;93207.63;5112439;27;19911;-49
2022/01/08 07:35:37;;;;;;;;;;;;;;;4.43;79.04;93196.94;5110750;27;19916;-50
2022/01/08 08:44:19;;;;;;;4.13;3.20;;;;;;;4.70;78.67;93162.31;4936444;28;20741;-32
2022/01/08 08:46:44;;;;;;;3.30;2.42;;;;;;;4.68;78.94;93162.09;4956019;28;20129;-32
2022/01/08 08:49:10;;;;;;;3.00;2.10;;;;;;;4.69;78.28;93163.53;4976690;23;20121;-73
2022/01/08 11:17:38;;;;;;;7.22;3.30;;;;;;;5.56;75.65;93017.63;5102891;28;20028;-36
2022/01/08 11:20:07;;;;;;;3.60;2.92;;;;;;;5.44;75.23;93014.34;5098140;28;20024;-36
2022/01/08 11:22:33;;;;;;;;;;;;;;;5.21;77.03;93016.75;5101476;28;20024;-36
2022/01/08 11:25:23;;;;;;;3.80;2.22;;;;;;;5.08;77.21;93016.00;5099015;28;19935;-36
2022/01/08 11:27:51;;;;;;;2.10;1.90;;;;;;;5.23;76.31;93013.47;5094961;28;20043;-36
2022/01/08 11:30:19;;;;;;;2.33;2.13;;;;;;;5.38;75.41;93010.97;5101159;28;20024;-37
2022/01/08 11:32:45;;;;;;;3.80;2.70;;;;;;;5.48;75.85;93009.28;5099687;28;20031;-36
2022/01/08 11:35:12;;;;;;;3.60;2.60;;;;;;;5.51;75.05;93004.75;5093120;28;20105;-36
2022/01/08 11:37:37;;;;;;;3.17;2.83;;;;;;;5.58;75.21;93010.34;5102207;28;20035;-37
2022/01/08 11:40:07;;;;;;;3.92;2.60;;;;;;;5.57;74.90;92980.75;5097136;28;20023;-36
2022/01/08 11:42:37;;;;;;;2.83;2.45;;;;;;;5.72;74.34;92989.16;5100955;28;20109;-37
2022/01/08 11:45:06;;;;;;;3.92;2.67;;;;;;;5.80;73.32;92993.47;5098856;28;20039;-36
2022/01/08 11:47:31;;;;;;;5.45;2.40;;;;;;;5.85;72.99;92987.16;5098206;28;20036;-36
2022/01/08 11:50:03;;;;;;;3.80;2.10;;;;;;;5.78;73.43;92985.03;5102046;28;20053;-36
2022/01/08 11:52:28;;;;;;;3.33;2.60;;;;;;;5.72;73.57;92987.16;5096926;28;20027;-36
2022/01/08 11:54:54;;;;;;;3.50;2.58;;;;;;;5.68;73.52;92975.78;5098954;28;20015;-37
2022/01/08 11:57:25;;;;;;;3.00;1.98;;;;;;;5.68;73.33;92984.00;5102772;28;20036;-36
2022/01/08 11:59:56;;;;;;;3.65;3.25;;;;;;;5.47;74.53;92982.44;5102631;28;20101;-36
2022/01/08 12:02:33;;;;;;;2.88;2.55;;;;;;;5.57;73.77;92973.25;5101096;28;20043;-36
2022/01/08 12:04:59;;;;;;;2.20;1.98;;;;;;;5.52;73.99;92978.88;5100929;28;20500;-36
2022/01/08 12:07:36;;;;;;;3.10;2.38;;;;;;;5.28;74.53;92971.59;5101582;28;20088;-36
2022/01/08 12:10:05;;;;;;;3.05;2.28;;;;;;;5.35;74.96;92976.41;5101240;28;20027;-36
2022/01/08 12:12:57;;;;;;;3.40;2.93;;;;;;;5.46;74.94;92965.25;5100238;28;20031;-36
2022/01/08 12:15:58;;;;;;;2.78;2.20;;;;;;;5.56;74.30;92962.84;5087748;28;20036;-36
2022/01/08 12:18:28;;;;;;;2.97;1.90;;;;;;;5.62;73.58;92969.69;5062614;28;20066;-36
2022/01/08 12:20:55;;;;;;;3.45;2.70;;;;;;;5.72;74.24;92959.75;5082653;28;20118;-34
2022/01/08 12:23:36;;;;;;;3.03;2.55;;;;;;;5.86;73.44;92964.00;5086202;28;20024;-34
2022/01/08 12:38:35;;;;;;;2.58;2.35;;;;;;;6.27;70.70;92951.66;5085187;27;20963;-34
2022/01/08 12:41:00;;;;;;;2.42;2.20;;;;;;;6.09;71.30;92954.03;5068880;28;20056;-36
2022/01/08 12:43:32;;;;;;;4.40;3.80;;;;;;;6.04;71.94;92952.13;5065218;28;20158;-37
2022/01/08 12:46:38;;;;;;;2.92;2.38;;;;;;;5.92;72.31;92950.91;5048981;28;20446;-36
2022/01/08 12:49:07;;;;;;;4.55;3.40;;;;;;;5.96;72.72;92948.56;5041986;28;20569;-37
2022/01/08 12:51:43;;;;;;;3.90;3.03;;;;;;;5.98;72.43;92948.78;5040502;28;20040;-39
2022/01/08 12:54:08;;;;;;;4.15;2.92;;;;;;;6.07;72.11;92948.34;5047162;28;20504;-43
2022/01/08 12:56:34;;;;;;;3.17;2.70;;;;;;;5.99;72.34;92953.00;5055407;28;20025;-41
2022/01/08 12:59:02;;;;;;;4.28;2.65;;;;;;;5.73;73.11;92944.81;5063322;28;20024;-38
2022/01/08 13:01:28;;;;;;;3.83;2.80;;;;;;;5.78;74.08;92943.94;5054768;28;20032;-38
2022/01/08 13:03:58;;;;;;;6.65;3.38;;;;;;;5.78;74.06;92957.66;5064644;28;20030;-38
2022/01/08 13:06:29;;;;;;;3.55;3.22;;;;;;;5.64;74.03;92950.72;5060456;28;20398;-39
2022/01/08 13:08:55;;;;;;;7.00;5.22;;;;;;;5.56;74.55;92958.13;5060340;28;20196;-38
2022/01/08 13:11:28;;;;;;;7.13;3.58;;;;;;;5.42;75.80;92956.63;5060368;28;20095;-39
2022/01/08 13:13:57;;;;;;;5.07;4.57;;;;;;;5.35;75.77;92949.06;5062557;28;20021;-39
2022/01/08 13:16:36;;;;;;;2.95;2.70;;;;;;;5.29;76.08;92953.91;5061861;28;20328;-41
2022/01/08 13:19:09;;;;;;;;;;;;;;;5.27;76.37;92943.50;5059782;28;20033;-41
2022/01/08 13:22:01;;;;;;;4.25;3.80;;;;;;;5.27;76.48;92959.16;5055761;28;20009;-43
2022/01/08 13:24:28;;;;;;;5.47;4.60;;;;;;;5.23;76.21;92956.75;5062821;28;20032;-38
2022/01/08 13:26:58;;;;;;;5.00;4.05;;;;;;;5.25;76.98;92951.50;5059223;28;20025;-45
2022/01/08 13:29:28;;;;;;;3.65;3.35;;;;;;;5.18;76.09;92924.75;5061850;28;20033;-40
2022/01/08 13:32:18;;;;;;;4.60;3.50;;;;;;;5.06;77.33;92944.63;5061110;28;20028;-37
2022/01/08 13:34:46;;;;;;;6.00;3.72;;;;;;;5.05;77.08;92946.63;5062808;28;20568;-38
2022/01/08 13:37:16;;;;;;;5.30;4.55;;;;;;;4.88;78.64;92954.41;5058228;28;20041;-40
2022/01/08 13:39:44;;;;;;;5.93;4.43;;;;;;;4.93;78.71;92944.63;5047080;28;20032;-41
2022/01/08 13:42:15;;;;;;;9.60;6.75;;;;;;;4.96;78.44;92941.56;5048033;28;20024;-41
2022/01/08 13:44:44;;;;;;;7.00;4.75;;;;;;;4.99;78.40;92940.53;5042797;28;20044;-38
2022/01/08 13:47:21;;;;;;;5.47;4.22;;;;;;;5.11;77.89;92941.06;5042563;28;20052;-41
2022/01/08 13:49:52;;;;;;;4.07;3.58;;;;;;;5.19;77.04;92945.38;5043447;28;20749;-39
2022/01/08 13:52:35;;;;;;;4.78;3.50;;;;;;;4.98;78.29;92941.06;5044760;28;20120;-38
2022/01/08 13:55:12;;;;;;;5.82;4.43;;;;;;;5.08;78.08;92948.31;5040982;28;20043;-38
2022/01/08 13:57:38;;;;;;;4.85;3.85;;;;;;;5.18;77.86;92951.38;5042849;28;20028;-39
2022/01/08 14:00:15;;;;;;;5.20;4.57;;;;;;;5.25;77.83;92946.00;5042083;28;20023;-40
2022/01/08 14:02:40;;;;;;;4.20;3.65;;;;;;;5.35;76.81;92946.31;5042884;28;20029;-38
2022/01/08 14:05:07;;;;;;;6.90;5.45;;;;;;;5.28;76.99;92930.53;5044938;28;20521;-39
2022/01/08 14:07:41;;;;;;;6.15;5.30;;;;;;;5.25;77.61;92948.00;5071348;28;20028;-39
2022/01/08 14:10:08;;;;;;;9.70;7.07;;;;;;;5.26;77.31;92949.50;5044718;28;20096;-41
2022/01/08 14:12:34;;;;;;;8.20;5.07;;;;;;;5.16;77.80;92959.38;5048446;28;20063;-38
2022/01/08 14:15:04;;;;;;;15.63;6.55;;;;;;;5.19;77.95;92961.81;5047371;28;20025;-40
2022/01/08 14:17:32;;;;;;;6.15;4.38;;;;;;;5.16;78.88;92951.91;5048001;28;20025;-39
2022/01/08 14:19:59;;;;;;;11.45;6.15;;;;;;;5.32;78.08;92948.13;5042387;28;20032;-40
2022/01/08 14:22:27;;;;;;;14.95;8.63;;;;;;;5.20;78.64;92943.38;5045543;28;20115;-40
2022/01/08 14:24:53;;;;;;;10.65;7.15;;;;;;;5.03;79.15;92927.28;5046919;28;20021;-39
2022/01/08 14:27:22;;;;;;;6.63;5.65;;;;;;;4.96;79.31;92936.09;5047987;28;20029;-46
2022/01/08 14:30:09;;;;;;;;;;;;;;;4.88;80.21;92938.00;5047746;28;20521;-43
2022/01/08 14:32:37;;;;;;;10.68;7.07;;;;;;;4.85;80.49;92944.50;5047565;28;19916;-42
2022/01/08 14:35:03;;;;;;;20.02;15.02;;;;;;;4.84;80.69;92931.34;5047035;28;20126;-39
2022/01/08 14:37:37;;;;;;;16.02;11.90;;;;;;;4.94;80.41;92924.94;5047392;28;20395;-41
2022/01/08 14:40:21;;;;;;;16.23;11.63;;;;;;;5.05;79.78;92932.22;5044703;28;20552;-40
2022/01/08 14:43:00;;;;;;;26.75;17.73;;;;;;;5.15;79.65;92930.53;5046277;28;20437;-41
2022/01/08 14:45:27;;;;;;;16.30;12.10;;;;;;;5.26;79.35;92933.06;5047971;28;20035;-42
2022/01/08 14:47:53;;;;;;;12.77;9.77;;;;;;;5.18;78.96;92913.06;5046869;28;20025;-45
2022/01/08 14:50:22;;;;;;;9.07;7.20;;;;;;;5.43;78.21;92933.47;5046589;28;20047;-40
2022/01/08 14:52:48;;;;;;;;;;;;;;;5.50;77.51;92935.56;5047167;28;20032;-39
2022/01/08 14:55:17;;;;;;;7.95;6.13;;;;;;;5.27;77.90;92935.28;5047258;28;19920;-38
2022/01/08 14:57:42;;;;;;;16.17;11.45;;;;;;;5.21;78.44;92928.44;5047186;28;20100;-43
2022/01/08 15:00:11;;;;;;;15.25;11.52;;;;;;;5.25;78.48;92937.81;5047053;28;20033;-38
2022/01/08 15:02:37;;;;;;;13.50;10.25;;;;;;;5.35;78.27;92925.16;5047237;28;20021;-39
2022/01/08 15:05:05;;;;;;;18.63;13.35;;;;;;;5.35;78.27;92930.63;5046683;28;20627;-41
2022/01/08 15:07:30;;;;;;;30.42;17.20;;;;;;;5.49;77.75;92934.09;5047826;28;20032;-39
2022/01/08 15:09:56;;;;;;;40.65;21.92;;;;;;;5.30;77.30;92900.66;5048933;28;20033;-39
2022/01/08 15:12:21;;;;;;;76.68;40.67;;;;;;;5.50;77.15;92923.91;5047867;28;20032;-40
2022/01/08 15:14:47;;;;;;;69.75;38.10;;;;;;;5.57;77.74;92932.19;5047420;28;20021;-42
2022/01/08 15:17:13;;;;;;;47.88;28.40;;;;;;;5.51;77.64;92928.84;5048067;28;20515;-42
2022/01/08 15:19:38;;;;;;;54.58;28.17;;;;;;;5.43;77.38;92919.78;5049073;28;20174;-46
2022/01/08 15:22:04;;;;;;;48.30;29.80;;;;;;;5.51;77.47;92925.34;5046667;28;20025;-42
2022/01/08 15:24:31;;;;;;;51.38;28.10;;;;;;;5.43;77.53;92932.75;5048814;28;20029;-39
2022/01/08 15:26:58;;;;;;;27.55;16.85;;;;;;;5.47;77.20;92936.63;5048289;28;20052;-40
2022/01/08 15:29:24;;;;;;;24.35;15.68;;;;;;;5.38;77.28;92921.38;5048269;28;20032;-41
2022/01/08 15:31:49;;;;;;;17.35;11.40;;;;;;;5.42;77.73;92934.72;5048300;28;20036;-42
2022/01/08 15:34:15;;;;;;;17.98;11.68;;;;;;;5.53;77.58;92931.03;5048226;28;20029;-39
2022/01/08 15:36:41;;;;;;;11.82;7.75;;;;;;;5.32;77.50;92926.22;5047010;28;20524;-39
2022/01/08 15:39:07;;;;;;;9.50;7.20;;;;;;;5.29;77.99;92921.06;5048423;28;20035;-41
2022/01/08 15:41:34;;;;;;;8.15;6.28;;;;;;;5.27;77.58;92915.38;5048180;28;20086;-40
2022/01/08 15:44:00;;;;;;;8.27;6.35;;;;;;;5.23;77.89;92915.69;5047473;28;20025;-40
2022/01/08 15:46:26;;;;;;;6.03;4.78;;;;;;;5.09;78.82;92916.94;5047743;28;20021;-39
2022/01/08 15:48:51;;;;;;;7.80;5.43;;;;;;;5.15;78.91;92925.06;5047006;28;20090;-39
2022/01/08 15:51:17;;;;;;;11.45;6.35;;;;;;;5.17;78.86;92919.81;5046675;28;20028;-39
2022/01/08 15:53:44;;;;;;;31.75;14.07;;;;;;;5.10;79.29;92915.69;5046511;28;20032;-40
2022/01/08 15:56:11;;;;;;;49.65;25.50;;;;;;;4.98;79.92;92913.72;5047200;28;20039;-39
2022/01/08 15:58:37;;;;;;;14.57;10.20;;;;;;;4.77;80.81;92910.84;5047012;28;20059;-40
2022/01/08 16:01:04;;;;;;;10.55;7.35;;;;;;;4.79;81.41;92907.56;5046904;28;20033;-39
2022/01/08 16:03:30;;;;;;;8.82;6.55;;;;;;;4.89;80.76;92905.91;5046974;28;20478;-41
2022/01/08 16:05:56;;;;;;;7.05;6.00;;;;;;;4.88;80.86;92901.69;5046290;28;20052;-41
2022/01/08 16:08:24;;;;;;;8.93;6.20;;;;;;;4.87;80.75;92898.25;5047071;28;20025;-37
2022/01/08 16:10:51;;;;;;;8.52;6.88;;;;;;;4.67;81.71;92904.31;5047256;28;20715;-38
2022/01/08 16:13:17;;;;;;;13.68;6.30;;;;;;;4.68;82.52;92900.31;5047425;28;20412;-39
2022/01/08 16:15:43;;;;;;;7.53;6.07;;;;;;;4.67;82.73;92898.84;5044660;28;20025;-40
2022/01/08 16:18:09;;;;;;;11.02;8.13;;;;;;;4.65;82.77;92908.81;5046094;28;20033;-39
2022/01/08 16:20:35;;;;;;;9.13;6.65;;;;;;;4.63;82.96;92903.16;5045422;28;20494;-39
2022/01/08 16:23:02;;;;;;;12.55;8.70;;;;;;;4.73;82.55;92901.47;5044546;28;20039;-42